Time;durP1;ratioP1;P1;durP2;ratioP2;P2;SDS_P1;SDS_P2;PMS_P1;PMS_P2;Temp;Humidity;BMP_temperature;BMP_pressure;BME280_temperature;BME280_humidity;BME280_pressure;Samples;Min_cycle;Max_cycle;Signal;HPM_P1;HPM_P2
2024/01/31 00:00:13;;;;;;;3.95;3.65;;;;;;;-0.76;81.88;101572.97;5116590;28;20047;-71
2024/01/31 00:02:42;;;;;;;3.40;3.15;;;;;;;-0.82;81.95;101569.13;5116618;28;20046;-70
2024/01/31 00:05:14;;;;;;;3.45;3.15;;;;;;;-0.91;81.49;101575.97;5116954;28;20081;-68
2024/01/31 00:07:45;;;;;;;13.35;2.67;;;;;;;-0.94;81.54;101570.72;5117152;28;20052;-69
2024/01/31 00:10:14;;;;;;;5.18;4.65;;;;;;;-0.93;81.80;101572.44;5116588;28;20130;-69
2024/01/31 00:12:43;;;;;;;6.30;2.25;;;;;;;-0.93;81.52;101569.94;5116687;28;20043;-69
2024/01/31 00:15:13;;;;;;;14.07;7.40;;;;;;;-0.99;81.67;101572.00;5116315;28;20036;-69
2024/01/31 00:17:42;;;;;;;5.72;4.60;;;;;;;-1.10;81.33;101567.78;5116743;28;20042;-71
2024/01/31 00:20:12;;;;;;;3.95;3.60;;;;;;;-1.16;81.38;101562.34;5116577;28;20396;-70
2024/01/31 00:22:41;;;;;;;2.42;2.08;;;;;;;-1.25;81.32;101571.66;5115992;28;20055;-69
2024/01/31 00:25:12;;;;;;;3.55;3.25;;;;;;;-1.28;81.49;101566.41;5116234;28;20130;-70
2024/01/31 00:27:40;;;;;;;6.13;3.00;;;;;;;-1.22;81.60;101566.91;5116332;28;20067;-72
2024/01/31 00:30:11;;;;;;;5.57;4.73;;;;;;;-1.25;81.48;101569.16;5116456;27;20031;-72
2024/01/31 00:32:40;;;;;;;2.05;1.90;;;;;;;-1.30;81.51;101573.81;5116410;27;20272;-71
2024/01/31 00:35:09;;;;;;;3.63;3.28;;;;;;;-1.40;81.33;101564.72;5114845;28;20062;-71
2024/01/31 00:37:38;;;;;;;4.90;4.53;;;;;;;-1.39;81.39;101573.97;5116822;28;20374;-71
2024/01/31 00:40:09;;;;;;;5.13;4.63;;;;;;;-1.37;81.27;101577.47;5116204;28;20126;-71
2024/01/31 00:42:42;;;;;;;1.08;1.02;;;;;;;-1.27;81.44;101573.19;5116188;28;20275;-70
2024/01/31 00:45:13;;;;;;;3.70;3.42;;;;;;;-1.28;81.26;101568.91;5116175;28;20481;-69
2024/01/31 00:47:43;;;;;;;3.65;3.35;;;;;;;-1.36;81.60;101579.22;5116099;28;20569;-71
2024/01/31 00:50:11;;;;;;;2.30;2.10;;;;;;;-1.38;81.58;101568.22;5116013;28;20508;-70
2024/01/31 00:52:41;;;;;;;4.32;3.55;;;;;;;-1.34;81.61;101565.97;5115978;28;20546;-69
2024/01/31 00:55:11;;;;;;;2.80;2.58;;;;;;;-1.47;81.72;101557.50;5115683;28;20043;-70
2024/01/31 00:57:41;;;;;;;10.27;5.43;;;;;;;-1.42;81.40;101565.38;5115540;28;20485;-68
2024/01/31 01:00:11;;;;;;;2.30;2.10;;;;;;;-1.49;81.28;101556.50;5115674;28;20134;-69
2024/01/31 01:02:41;;;;;;;1.70;1.60;;;;;;;-1.52;81.12;101556.28;5115758;28;20044;-70
2024/01/31 01:05:10;;;;;;;2.92;2.72;;;;;;;-1.54;81.04;101551.91;5115670;28;20573;-69
2024/01/31 01:07:39;;;;;;;;;;;;;;;-1.54;81.19;101552.78;5116070;28;20032;-68
2024/01/31 01:10:12;;;;;;;5.20;2.17;;;;;;;-1.63;80.88;101534.53;5115566;28;20002;-69
2024/01/31 01:12:43;;;;;;;2.05;1.15;;;;;;;-1.52;80.94;101546.28;5115580;28;20048;-71
2024/01/31 01:15:12;;;;;;;2.75;2.55;;;;;;;-1.73;80.42;101524.59;5115503;28;20050;-70
2024/01/31 01:17:44;;;;;;;2.47;2.35;;;;;;;-1.65;81.14;101543.56;5115457;28;20043;-70
2024/01/31 01:20:13;;;;;;;3.70;3.20;;;;;;;-1.64;80.87;101540.31;5115459;28;20039;-69
2024/01/31 01:22:44;;;;;;;2.28;1.98;;;;;;;-1.71;81.01;101533.09;5114962;28;20047;-70
2024/01/31 01:25:15;;;;;;;2.05;1.95;;;;;;;-1.61;81.02;101538.03;5115124;28;20100;-71
2024/01/31 01:27:50;;;;;;;3.15;2.50;;;;;;;-1.69;80.59;101541.59;5115360;28;20046;-72
2024/01/31 01:30:22;;;;;;;3.08;2.88;;;;;;;-1.75;80.77;101541.09;5114083;28;20515;-71
2024/01/31 01:32:51;;;;;;;5.28;3.75;;;;;;;-1.71;80.85;101538.09;5097106;28;20378;-71
2024/01/31 01:35:21;;;;;;;5.40;3.70;;;;;;;-1.71;81.01;101543.09;5113706;28;20461;-70
2024/01/31 01:37:50;;;;;;;2.70;2.45;;;;;;;-1.74;81.17;101532.84;5114024;28;20046;-69
2024/01/31 01:40:19;;;;;;;1.42;1.25;;;;;;;-1.66;80.58;101536.81;5113914;28;20108;-71
2024/01/31 01:42:49;;;;;;;7.47;2.95;;;;;;;-1.63;80.81;101532.03;5114837;28;20035;-71
2024/01/31 01:45:18;;;;;;;1.83;1.73;;;;;;;-1.54;81.22;101527.75;5115083;28;20496;-68
2024/01/31 01:47:50;;;;;;;4.18;3.88;;;;;;;-1.54;81.01;101522.75;5096369;28;20053;-68
2024/01/31 01:50:20;;;;;;;2.08;1.92;;;;;;;-1.57;81.28;101515.00;5114819;28;20039;-68
2024/01/31 01:52:49;;;;;;;;;;;;;;;-1.49;81.39;101516.44;5115000;28;20063;-70
2024/01/31 01:55:18;;;;;;;0.95;0.95;;;;;;;-1.46;81.33;101516.69;5114557;28;19919;-69
2024/01/31 01:57:50;;;;;;;1.48;1.38;;;;;;;-1.53;81.38;101509.47;5114785;28;20036;-70
2024/01/31 02:00:20;;;;;;;1.70;1.60;;;;;;;-1.72;81.30;101487.91;5115072;28;20551;-69
2024/01/31 02:02:49;;;;;;;4.28;1.63;;;;;;;-1.59;81.38;101514.00;5114460;28;20401;-69
2024/01/31 02:05:17;;;;;;;2.85;2.63;;;;;;;-1.56;81.36;101514.22;5114702;28;20067;-68
2024/01/31 02:07:47;;;;;;;4.13;2.45;;;;;;;-1.55;81.29;101510.97;5114915;28;20488;-72
2024/01/31 02:10:16;;;;;;;1.15;1.05;;;;;;;-1.54;81.74;101507.72;5114454;28;20043;-70
2024/01/31 02:12:45;;;;;;;2.38;2.25;;;;;;;-1.52;81.78;101506.22;5114455;28;20488;-70
2024/01/31 02:15:15;;;;;;;2.92;2.40;;;;;;;-1.50;81.41;101504.69;5114255;28;20054;-69
2024/01/31 02:17:44;;;;;;;6.80;2.72;;;;;;;-1.46;81.55;101496.66;5114586;28;20043;-70
2024/01/31 02:20:15;;;;;;;1.10;1.08;;;;;;;-1.46;81.43;101506.66;5112961;28;20400;-70
2024/01/31 02:22:48;;;;;;;1.98;1.88;;;;;;;-1.49;81.51;101496.41;5112776;28;20081;-70
2024/01/31 02:25:17;;;;;;;5.32;4.60;;;;;;;-1.40;81.96;101496.25;5114372;28;20047;-68
2024/01/31 02:27:46;;;;;;;0.70;0.70;;;;;;;-1.39;82.14;101498.84;5114714;28;20460;-70
2024/01/31 02:30:16;;;;;;;1.77;1.67;;;;;;;-1.38;81.75;101495.63;5114392;28;20036;-68
2024/01/31 02:32:45;;;;;;;0.65;0.65;;;;;;;-1.38;82.05;101500.63;5114044;28;20055;-69
2024/01/31 02:35:14;;;;;;;1.70;1.60;;;;;;;-1.37;81.69;101502.34;5113078;28;20040;-68
2024/01/31 02:37:43;;;;;;;1.65;1.55;;;;;;;-1.38;81.96;101505.63;5114602;28;20043;-70
2024/01/31 02:40:15;;;;;;;2.58;2.40;;;;;;;-1.51;82.30;101472.91;5113964;28;20036;-68
2024/01/31 02:42:44;;;;;;;1.85;1.25;;;;;;;-1.37;82.19;101497.34;5114356;28;20036;-71
2024/01/31 02:45:13;;;;;;;2.80;1.98;;;;;;;-1.37;82.04;101496.50;5114237;28;20497;-69
2024/01/31 02:47:42;;;;;;;3.10;2.90;;;;;;;-1.29;82.01;101497.03;5113861;28;20042;-70
2024/01/31 02:50:11;;;;;;;3.30;2.25;;;;;;;-1.29;82.08;101490.41;5114170;28;20047;-71
2024/01/31 02:52:40;;;;;;;1.95;1.60;;;;;;;-1.26;81.91;101492.28;5114201;28;20491;-69
2024/01/31 02:55:09;;;;;;;2.35;2.25;;;;;;;-1.24;81.92;101499.13;5113916;28;20556;-71
2024/01/31 02:57:39;;;;;;;;;;;;;;;-1.23;82.03;101495.00;5114247;28;20489;-70
2024/01/31 03:00:12;;;;;;;2.13;2.03;;;;;;;-1.37;81.83;101497.34;5114227;28;19926;-70
2024/01/31 03:02:43;;;;;;;1.05;1.05;;;;;;;-1.40;81.71;101501.25;5113953;28;20043;-70
2024/01/31 03:05:13;;;;;;;0.63;0.63;;;;;;;-1.51;81.67;101497.94;5112440;28;20051;-71
2024/01/31 03:07:42;;;;;;;1.48;1.38;;;;;;;-1.51;81.59;101497.94;5113786;28;20040;-71
2024/01/31 03:10:11;;;;;;;1.73;1.60;;;;;;;-1.50;81.54;101504.69;5114000;28;20122;-71
2024/01/31 03:12:42;;;;;;;1.73;1.63;;;;;;;-1.77;81.20;101485.06;5113704;28;20039;-69
2024/01/31 03:15:11;;;;;;;1.98;1.88;;;;;;;-1.62;81.64;101498.75;5113733;28;20054;-71
2024/01/31 03:17:41;;;;;;;2.28;2.17;;;;;;;-1.63;81.35;101501.16;5113947;28;20042;-71
2024/01/31 03:20:11;;;;;;;1.05;1.05;;;;;;;-1.66;81.69;101499.28;5113677;28;20048;-71
2024/01/31 03:22:40;;;;;;;1.38;1.27;;;;;;;-1.75;81.71;101498.56;5114359;28;20493;-68
2024/01/31 03:25:09;;;;;;;0.90;0.90;;;;;;;-1.69;82.19;101491.53;5118127;28;20047;-70
2024/01/31 03:27:39;;;;;;;1.45;1.35;;;;;;;-1.73;81.89;101499.56;5118003;28;20539;-70
2024/01/31 03:30:10;;;;;;;1.17;1.13;;;;;;;-1.75;81.88;101491.03;5117438;28;20124;-71
2024/01/31 03:32:39;;;;;;;1.10;1.08;;;;;;;-1.71;82.01;101498.06;5117689;28;20043;-70
2024/01/31 03:35:09;;;;;;;0.52;0.52;;;;;;;-1.71;81.86;101498.06;5116421;28;20035;-69
2024/01/31 03:37:37;;;;;;;;;;;;;;;-1.63;82.20;101502.00;5118833;28;20151;-71
2024/01/31 03:40:08;;;;;;;3.97;2.50;;;;;;;-1.64;81.84;101499.41;5116228;28;20356;-69
2024/01/31 03:42:37;;;;;;;9.43;3.38;;;;;;;-1.69;82.00;101481.53;5099177;28;20043;-71
2024/01/31 03:45:07;;;;;;;1.92;1.77;;;;;;;-1.55;82.18;101500.97;5117084;28;20126;-71
2024/01/31 03:47:37;;;;;;;;;;;;;;;-1.57;82.14;101501.59;5118215;28;20039;-70
2024/01/31 03:50:07;;;;;;;1.35;1.25;;;;;;;-1.63;82.42;101491.13;5116140;28;19919;-71
2024/01/31 03:52:36;;;;;;;0.75;0.75;;;;;;;-1.62;82.38;101483.75;5117327;28;20059;-70
2024/01/31 03:55:06;;;;;;;6.80;2.25;;;;;;;-1.70;82.19;101482.28;5117184;28;20058;-70
2024/01/31 03:57:35;;;;;;;0.40;0.40;;;;;;;-1.78;82.14;101485.84;5117118;28;20043;-70
2024/01/31 04:00:08;;;;;;;1.93;1.67;;;;;;;-1.83;82.13;101469.59;5117088;28;20027;-70
2024/01/31 04:02:40;;;;;;;3.38;2.30;;;;;;;-1.83;82.26;101484.59;5115589;28;20050;-70
2024/01/31 04:05:10;;;;;;;0.82;0.82;;;;;;;-1.95;82.02;101466.16;5117087;28;20044;-69
2024/01/31 04:07:40;;;;;;;1.92;1.77;;;;;;;-1.90;81.98;101489.00;5117018;28;20055;-69
2024/01/31 04:10:15;;;;;;;1.52;1.42;;;;;;;-1.95;81.46;101481.16;5117180;28;20046;-70
2024/01/31 04:12:45;;;;;;;2.20;1.92;;;;;;;-2.13;81.83;101444.69;5116926;28;20039;-70
2024/01/31 04:15:14;;;;;;;3.10;2.75;;;;;;;-2.03;81.54;101474.66;5117118;28;20040;-71
2024/01/31 04:17:45;;;;;;;0.95;0.95;;;;;;;-1.98;81.71;101480.03;5116830;28;20036;-71
2024/01/31 04:20:14;;;;;;;1.70;1.60;;;;;;;-2.12;81.57;101456.47;5116778;28;20129;-70
2024/01/31 04:22:43;;;;;;;1.48;1.38;;;;;;;-2.06;81.50;101479.44;5116343;28;20047;-69
2024/01/31 04:25:12;;;;;;;6.88;2.08;;;;;;;-2.12;81.30;101476.47;5116634;28;20100;-68
2024/01/31 04:27:41;;;;;;;0.82;0.80;;;;;;;-2.12;81.47;101472.34;5115386;28;20028;-70
2024/01/31 04:30:12;;;;;;;10.35;3.42;;;;;;;-2.08;81.13;101468.44;5116505;28;20031;-70
2024/01/31 04:32:41;;;;;;;2.95;2.75;;;;;;;-2.13;81.02;101454.69;5116474;28;20057;-70
2024/01/31 04:35:12;;;;;;;1.60;1.50;;;;;;;-2.15;81.37;101466.22;5116058;28;20511;-69
2024/01/31 04:37:41;;;;;;;7.07;2.75;;;;;;;-2.20;81.60;101458.38;5115226;28;20564;-70
2024/01/31 04:40:10;;;;;;;3.67;3.37;;;;;;;-2.13;82.02;101464.69;5116333;28;20135;-69
2024/01/31 04:42:40;;;;;;;4.03;3.00;;;;;;;-2.12;81.66;101463.97;5115984;27;20124;-69
2024/01/31 04:45:09;;;;;;;5.28;2.15;;;;;;;-2.15;81.47;101459.59;5115050;28;20491;-69
2024/01/31 04:47:38;;;;;;;3.05;2.33;;;;;;;-2.16;81.98;101462.00;5116124;28;20035;-70
2024/01/31 04:50:08;;;;;;;3.65;3.35;;;;;;;-2.15;81.38;101466.22;5116433;28;20039;-70
2024/01/31 04:52:39;;;;;;;12.70;7.72;;;;;;;-2.22;81.83;101449.00;5116061;28;20031;-71
2024/01/31 04:55:08;;;;;;;8.27;6.43;;;;;;;-2.06;82.13;101467.81;5115793;28;20047;-70
2024/01/31 04:57:37;;;;;;;3.88;3.58;;;;;;;-1.98;82.31;101470.91;5115724;28;20040;-71
2024/01/31 05:00:08;;;;;;;10.45;7.55;;;;;;;-1.88;82.35;101460.84;5115761;28;20036;-69
2024/01/31 05:02:37;;;;;;;4.75;4.32;;;;;;;-1.84;82.38;101470.34;5115730;28;20745;-70
2024/01/31 05:05:06;;;;;;;4.05;3.75;;;;;;;-1.80;82.60;101472.31;5115450;28;20040;-71
2024/01/31 05:07:35;;;;;;;7.78;2.70;;;;;;;-1.80;82.67;101467.31;5115810;28;20039;-69
2024/01/31 05:10:07;;;;;;;3.60;3.30;;;;;;;-1.80;82.63;101467.31;5115695;28;20044;-70
2024/01/31 05:12:36;;;;;;;3.03;2.45;;;;;;;-1.75;82.36;101473.53;5115494;28;20058;-71
2024/01/31 05:15:06;;;;;;;3.30;2.97;;;;;;;-1.69;82.83;101476.53;5116220;28;20044;-69
2024/01/31 05:17:35;;;;;;;3.03;2.83;;;;;;;-1.67;82.48;101480.00;5115569;28;20409;-70
2024/01/31 05:20:04;;;;;;;4.50;4.13;;;;;;;-1.70;82.41;101463.88;5115535;28;20048;-70
2024/01/31 05:22:33;;;;;;;1.50;1.40;;;;;;;-1.67;82.70;101470.00;5115190;28;20295;-72
2024/01/31 05:25:02;;;;;;;1.10;1.05;;;;;;;-1.62;82.92;101463.72;5115180;28;20043;-72
2024/01/31 05:27:32;;;;;;;;;;;;;;;-1.54;82.81;101467.69;5115770;28;20039;-69
2024/01/31 05:30:01;;;;;;;2.78;2.58;;;;;;;-1.58;82.74;101455.66;5115321;28;19976;-69
2024/01/31 05:32:30;;;;;;;3.78;3.47;;;;;;;-1.57;82.75;101457.44;5114115;28;20120;-72
2024/01/31 05:34:59;;;;;;;15.15;5.22;;;;;;;-1.59;82.83;101461.44;5114043;28;20031;-70
2024/01/31 05:37:28;;;;;;;6.97;6.30;;;;;;;-1.55;82.90;101463.41;5113977;28;20047;-70
2024/01/31 05:39:57;;;;;;;27.10;12.90;;;;;;;-1.65;82.68;101458.47;5113986;28;20126;-71
2024/01/31 05:42:26;;;;;;;10.35;8.43;;;;;;;-1.63;82.83;101466.13;5115700;28;20377;-69
2024/01/31 05:44:57;;;;;;;22.33;13.30;;;;;;;-1.64;83.09;101470.25;5112931;28;20040;-69
2024/01/31 05:47:25;;;;;;;12.85;9.02;;;;;;;-1.67;82.75;101462.50;5115090;28;20303;-70
2024/01/31 05:49:55;;;;;;;;;;;;;;;-1.67;82.70;101470.00;5114544;28;20035;-69
2024/01/31 05:52:24;;;;;;;4.50;4.15;;;;;;;-1.62;82.97;101473.72;5113722;28;19924;-69
2024/01/31 05:54:52;;;;;;;5.67;3.30;;;;;;;-1.55;82.97;101473.44;5114593;28;20051;-69
2024/01/31 05:57:21;;;;;;;2.70;2.17;;;;;;;-1.51;82.97;101472.91;5114514;28;20370;-69
2024/01/31 05:59:50;;;;;;;4.83;4.43;;;;;;;-1.42;82.74;101478.59;5115052;28;20303;-69
2024/01/31 06:02:21;;;;;;;3.38;2.90;;;;;;;-1.39;82.92;101473.81;5115016;28;20040;-70
2024/01/31 06:04:50;;;;;;;2.58;2.38;;;;;;;-1.43;82.72;101456.84;5114803;28;20036;-69
2024/01/31 06:07:19;;;;;;;1.52;1.42;;;;;;;-1.27;83.15;101471.34;5113403;28;20055;-69
2024/01/31 06:09:48;;;;;;;4.65;3.90;;;;;;;-1.42;82.96;101436.03;5114639;28;20097;-70
2024/01/31 06:12:17;;;;;;;1.17;1.13;;;;;;;-1.16;83.37;101474.66;5114601;28;20046;-70
2024/01/31 06:14:46;;;;;;;2.70;2.50;;;;;;;-1.20;83.05;101460.19;5114800;28;20043;-70
2024/01/31 06:17:17;;;;;;;3.00;1.52;;;;;;;-1.14;83.11;101470.63;5113261;28;20047;-71
2024/01/31 06:19:48;;;;;;;5.07;3.25;;;;;;;-1.19;83.10;101470.31;5114556;28;20047;-71
2024/01/31 06:22:17;;;;;;;2.70;2.50;;;;;;;-1.23;82.74;101474.97;5113908;28;20039;-71
2024/01/31 06:24:46;;;;;;;3.33;3.03;;;;;;;-1.16;83.07;101472.16;5113093;28;20036;-69
2024/01/31 06:27:15;;;;;;;2.00;1.90;;;;;;;-1.16;82.99;101477.19;5114416;28;20039;-70
2024/01/31 06:29:44;;;;;;;3.67;2.13;;;;;;;-1.18;83.05;101473.69;5114099;28;20400;-71
2024/01/31 06:32:20;;;;;;;2.85;2.65;;;;;;;-1.15;83.06;101468.91;5114267;28;20070;-70
2024/01/31 06:34:52;;;;;;;1.48;1.38;;;;;;;-1.14;83.20;101474.03;5114370;28;20069;-70
2024/01/31 06:37:21;;;;;;;2.85;2.50;;;;;;;-1.12;83.04;101465.00;5114342;28;20135;-71
2024/01/31 06:39:50;;;;;;;1.77;1.67;;;;;;;-1.05;83.12;101481.34;5113054;28;20047;-70
2024/01/31 06:42:19;;;;;;;2.80;2.45;;;;;;;-1.06;83.06;101490.50;5113310;28;20039;-71
2024/01/31 06:44:47;;;;;;;3.17;2.95;;;;;;;-1.05;83.34;101489.72;5113989;28;20508;-71
2024/01/31 06:47:16;;;;;;;1.40;1.30;;;;;;;-1.02;83.06;101486.59;5114192;28;20032;-71
2024/01/31 06:49:45;;;;;;;1.83;1.70;;;;;;;-1.00;82.95;101495.06;5114162;28;20272;-70
2024/01/31 06:52:15;;;;;;;3.50;3.20;;;;;;;-0.97;83.15;101485.28;5113821;28;20134;-70
2024/01/31 06:54:44;;;;;;;0.65;0.65;;;;;;;-0.95;83.34;101486.28;5114231;28;20036;-69
2024/01/31 06:57:13;;;;;;;6.40;4.80;;;;;;;-0.91;83.43;101486.59;5116397;28;20058;-70
2024/01/31 06:59:42;;;;;;;2.47;2.22;;;;;;;-0.78;83.61;101493.41;5118010;28;20039;-70
2024/01/31 07:02:11;;;;;;;2.70;2.33;;;;;;;-0.79;83.84;101476.59;5117943;28;20511;-71
2024/01/31 07:04:40;;;;;;;1.77;1.67;;;;;;;-0.73;83.59;101477.06;5118059;28;20093;-71
2024/01/31 07:07:09;;;;;;;3.40;3.10;;;;;;;-0.63;83.70;101499.53;5118098;28;20035;-70
2024/01/31 07:09:39;;;;;;;4.45;3.95;;;;;;;-0.59;83.80;101495.59;5117390;28;20038;-70
2024/01/31 07:12:08;;;;;;;3.67;3.38;;;;;;;-0.58;83.76;101498.25;5118346;28;20047;-70
2024/01/31 07:14:37;;;;;;;6.43;3.85;;;;;;;-0.52;83.94;101492.78;5116830;28;20040;-69
2024/01/31 07:17:05;;;;;;;4.78;4.35;;;;;;;-0.47;83.95;101486.44;5117046;28;20040;-70
2024/01/31 07:19:34;;;;;;;3.13;2.67;;;;;;;-0.41;83.97;101491.94;5117587;28;20423;-69
2024/01/31 07:22:03;;;;;;;7.07;3.92;;;;;;;-0.38;83.78;101485.47;5117482;28;20423;-70
2024/01/31 07:24:33;;;;;;;1.63;1.52;;;;;;;-0.33;83.98;101491.69;5115880;28;20036;-70
2024/01/31 07:27:04;;;;;;;3.08;2.88;;;;;;;-0.32;83.98;101473.38;5118066;28;20051;-69
2024/01/31 07:29:32;;;;;;;2.65;2.28;;;;;;;-0.25;84.13;101470.53;5117744;28;20047;-70
2024/01/31 07:32:02;;;;;;;1.48;1.38;;;;;;;-0.22;84.28;101473.28;5115762;27;20043;-70
2024/01/31 07:34:31;;;;;;;1.77;1.38;;;;;;;-0.23;84.28;101474.03;5099641;28;20123;-70
2024/01/31 07:37:00;;;;;;;2.55;1.95;;;;;;;-0.15;84.28;101493.03;5097474;28;20142;-68
2024/01/31 07:39:30;;;;;;;4.82;2.33;;;;;;;-0.09;84.33;101493.44;5096918;28;20040;-68
2024/01/31 07:42:00;;;;;;;4.88;3.65;;;;;;;-0.08;84.04;101482.66;5097023;28;20047;-70
2024/01/31 07:44:30;;;;;;;5.63;5.07;;;;;;;-0.02;84.65;101493.09;5097265;28;20039;-70
2024/01/31 07:47:02;;;;;;;10.63;6.32;;;;;;;0.04;84.74;101486.75;5096647;28;20140;-70
2024/01/31 07:49:31;;;;;;;3.30;3.10;;;;;;;0.11;84.39;101483.91;5095902;28;20085;-69
2024/01/31 07:52:00;;;;;;;4.50;2.88;;;;;;;0.11;84.84;101477.25;5096909;28;20543;-69
2024/01/31 07:54:29;;;;;;;2.63;2.45;;;;;;;0.11;84.50;101471.38;5096834;28;20036;-68
2024/01/31 07:56:59;;;;;;;1.27;1.23;;;;;;;0.13;84.50;101487.41;5095559;28;20040;-68
2024/01/31 07:59:28;;;;;;;2.85;2.65;;;;;;;0.20;84.52;101492.06;5097067;28;20071;-69
2024/01/31 08:01:58;;;;;;;1.25;1.15;;;;;;;0.21;84.57;101488.81;5096745;28;20056;-69
2024/01/31 08:04:27;;;;;;;5.22;2.13;;;;;;;0.25;84.29;101480.72;5095564;28;20143;-70
2024/01/31 08:06:56;;;;;;;2.63;2.42;;;;;;;0.35;84.69;101490.63;5096497;28;20036;-69
2024/01/31 08:09:26;;;;;;;0.77;0.77;;;;;;;0.35;84.50;101483.09;5104698;28;20040;-69
2024/01/31 08:11:55;;;;;;;3.17;2.58;;;;;;;0.31;84.57;101483.66;5107440;28;20040;-69
2024/01/31 08:14:24;;;;;;;4.07;2.70;;;;;;;0.35;84.45;101488.13;5116436;28;20058;-69
2024/01/31 08:16:53;;;;;;;2.60;2.33;;;;;;;0.51;84.68;101490.91;5116956;28;20761;-69
2024/01/31 08:19:25;;;;;;;3.05;2.50;;;;;;;0.57;84.07;101486.31;5116745;28;20043;-66
2024/01/31 08:21:54;;;;;;;1.30;1.20;;;;;;;0.64;84.37;101489.34;5117031;27;20047;-69
2024/01/31 08:24:23;;;;;;;3.58;2.35;;;;;;;0.68;84.89;101490.41;5116127;28;20047;-68
2024/01/31 08:26:55;;;;;;;3.22;3.03;;;;;;;0.74;84.11;101500.88;5116529;28;20067;-69
2024/01/31 08:29:24;;;;;;;5.82;3.50;;;;;;;0.78;84.15;101505.34;5116917;28;20039;-69
2024/01/31 08:31:57;;;;;;;1.42;1.20;;;;;;;0.77;84.53;101496.03;5116238;28;20048;-69
2024/01/31 08:34:31;;;;;;;1.67;1.58;;;;;;;0.78;83.80;101492.78;5116481;28;20048;-67
2024/01/31 08:37:01;;;;;;;1.30;1.20;;;;;;;0.80;84.52;101500.41;5116122;28;20056;-69
2024/01/31 08:39:30;;;;;;;4.78;4.28;;;;;;;0.83;84.67;101485.53;5116785;28;20385;-69
2024/01/31 08:41:59;;;;;;;;;;;;;;;0.81;84.09;101487.97;5116415;28;20554;-70
2024/01/31 08:44:28;;;;;;;11.40;3.80;;;;;;;0.85;84.37;101494.94;5116265;28;20014;-69
2024/01/31 08:46:59;;;;;;;2.55;2.00;;;;;;;0.86;83.92;101491.66;5116287;28;20108;-68
2024/01/31 08:49:48;;;;;;;1.80;1.70;;;;;;;0.87;83.92;101485.84;5116227;28;20074;-69
2024/01/31 08:52:17;;;;;;;5.05;1.98;;;;;;;0.92;83.85;101492.03;5115788;28;20044;-69
2024/01/31 08:54:46;;;;;;;1.20;1.10;;;;;;;1.01;84.41;101492.66;5116033;28;20040;-70
2024/01/31 08:57:15;;;;;;;1.52;1.42;;;;;;;1.10;84.45;101492.41;5116044;28;20062;-69
2024/01/31 08:59:48;;;;;;;3.15;2.90;;;;;;;1.08;83.65;101479.72;5114610;28;20044;-68
2024/01/31 09:02:18;;;;;;;4.60;1.73;;;;;;;1.06;84.25;101483.78;5114755;28;20044;-69
2024/01/31 09:04:49;;;;;;;1.95;1.85;;;;;;;1.13;84.23;101490.06;5115619;28;20505;-69
2024/01/31 09:07:19;;;;;;;1.42;1.33;;;;;;;1.19;83.23;101493.00;5112071;28;20047;-70
2024/01/31 09:09:49;;;;;;;3.53;3.25;;;;;;;1.23;84.10;101493.28;5107949;28;20040;-69
2024/01/31 09:12:19;;;;;;;1.27;1.13;;;;;;;1.28;83.41;101484.41;5094974;28;20494;-69
2024/01/31 09:14:48;;;;;;;1.20;1.15;;;;;;;1.40;83.63;101485.97;5095248;28;20067;-71
2024/01/31 09:17:17;;;;;;;4.53;2.17;;;;;;;1.43;83.77;101483.66;5095241;28;20048;-71
2024/01/31 09:19:46;;;;;;;0.97;0.97;;;;;;;1.45;83.26;101482.09;5095205;28;20036;-70
2024/01/31 09:22:17;;;;;;;4.32;2.67;;;;;;;1.48;83.25;101487.34;5094821;28;20291;-69
2024/01/31 09:24:46;;;;;;;4.32;1.40;;;;;;;1.55;83.04;101484.44;5094136;28;20048;-69
2024/01/31 09:27:16;;;;;;;3.30;2.77;;;;;;;1.64;83.35;101487.53;5094803;28;20039;-67
2024/01/31 09:29:45;;;;;;;1.48;1.38;;;;;;;1.72;83.22;101489.78;5095049;28;20052;-65
2024/01/31 09:32:15;;;;;;;1.43;1.33;;;;;;;1.85;83.33;101496.44;5094209;28;20370;-67
2024/01/31 09:34:44;;;;;;;1.77;1.67;;;;;;;1.91;83.14;101492.69;5094659;28;20048;-67
2024/01/31 09:37:13;;;;;;;0.93;0.93;;;;;;;1.92;82.75;101491.03;5094532;28;20055;-68
2024/01/31 09:39:43;;;;;;;1.73;1.63;;;;;;;1.81;82.77;101494.50;5094862;28;20051;-68
2024/01/31 09:42:12;;;;;;;3.05;1.45;;;;;;;1.75;82.64;101489.94;5094814;28;20052;-68
2024/01/31 09:44:42;;;;;;;1.48;1.35;;;;;;;1.78;82.92;101484.25;5094414;28;20048;-69
2024/01/31 09:47:13;;;;;;;1.63;1.52;;;;;;;1.79;82.03;101480.97;5095039;28;20466;-68
2024/01/31 09:49:42;;;;;;;2.03;1.92;;;;;;;1.78;82.62;101469.13;5094692;28;20051;-69
2024/01/31 09:52:15;;;;;;;4.07;2.95;;;;;;;1.86;82.48;101476.41;5094367;28;20046;-69
2024/01/31 09:54:47;;;;;;;1.60;1.50;;;;;;;1.99;82.52;101468.00;5094497;28;20405;-66
2024/01/31 09:57:16;;;;;;;1.42;1.20;;;;;;;2.23;82.32;101461.91;5094542;28;20036;-66
2024/01/31 09:59:46;;;;;;;1.43;1.33;;;;;;;2.49;81.77;101459.34;5094142;28;20119;-67
2024/01/31 10:02:17;;;;;;;1.38;1.27;;;;;;;2.77;81.66;101451.75;5092753;28;20834;-67
2024/01/31 10:04:47;;;;;;;9.98;3.92;;;;;;;2.79;80.95;101446.78;5094277;28;20135;-68
2024/01/31 10:07:24;;;;;;;3.38;2.08;;;;;;;2.79;80.60;101437.56;5094244;28;20047;-66
2024/01/31 10:09:56;;;;;;;1.42;1.33;;;;;;;2.82;79.88;101441.94;5104445;28;20044;-66
2024/01/31 10:12:25;;;;;;;1.77;1.65;;;;;;;2.87;79.89;101436.38;5114567;28;20058;-67
2024/01/31 10:14:55;;;;;;;5.10;4.57;;;;;;;2.88;79.52;101427.16;5114886;28;20028;-66
2024/01/31 10:17:25;;;;;;;0.98;0.98;;;;;;;2.97;79.25;101427.69;5107610;28;20043;-66
2024/01/31 10:19:54;;;;;;;4.20;3.50;;;;;;;3.17;78.94;101422.13;5101708;28;20040;-67
2024/01/31 10:22:27;;;;;;;2.00;1.88;;;;;;;3.31;77.92;101416.22;5106108;28;20036;-67
2024/01/31 10:25:00;;;;;;;0.73;0.73;;;;;;;3.44;77.86;101421.16;5114099;28;20074;-66
2024/01/31 10:27:30;;;;;;;0.98;0.95;;;;;;;3.37;77.64;101411.50;5114195;28;20043;-67
2024/01/31 10:29:59;;;;;;;2.10;1.90;;;;;;;3.48;77.67;101410.41;5112842;28;20035;-66
2024/01/31 10:32:28;;;;;;;2.97;2.72;;;;;;;3.40;77.19;101401.56;5113664;28;20035;-66
2024/01/31 10:34:59;;;;;;;6.22;2.83;;;;;;;3.29;77.75;101407.66;5107284;28;20084;-65
2024/01/31 10:37:50;;;;;;;4.30;3.88;;;;;;;3.10;78.34;101409.94;5096549;28;20047;-66
2024/01/31 10:40:29;;;;;;;1.38;1.27;;;;;;;2.97;78.42;101398.31;5093643;28;20052;-66
2024/01/31 10:42:59;;;;;;;3.72;3.45;;;;;;;3.17;78.29;101401.94;5092702;28;20564;-67
2024/01/31 10:45:31;;;;;;;4.80;2.80;;;;;;;3.28;79.16;101406.81;5104443;28;20071;-68
2024/01/31 10:48:01;;;;;;;2.63;1.85;;;;;;;3.40;79.41;101391.47;5112491;28;20432;-66
2024/01/31 10:50:30;;;;;;;1.38;1.30;;;;;;;3.34;79.40;101396.19;5114120;28;20043;-66
2024/01/31 10:53:01;;;;;;;4.40;1.63;;;;;;;3.47;78.92;101388.50;5114133;28;20126;-67
2024/01/31 10:55:33;;;;;;;2.28;2.10;;;;;;;3.59;78.95;101399.28;5112813;28;20449;-67
2024/01/31 10:58:05;;;;;;;3.50;3.20;;;;;;;3.70;78.30;101387.22;5114412;28;20388;-66
2024/01/31 11:00:34;;;;;;;1.70;1.58;;;;;;;3.70;78.63;101378.00;5114036;28;20040;-68
2024/01/31 11:03:04;;;;;;;1.20;1.13;;;;;;;3.69;78.13;101371.22;5114060;28;20059;-67
2024/01/31 11:05:33;;;;;;;;;;;;;;;3.72;78.28;101378.94;5114458;28;20055;-67
2024/01/31 11:08:02;;;;;;;1.30;1.20;;;;;;;3.75;77.71;101371.53;5113574;28;19919;-67
2024/01/31 11:10:36;;;;;;;1.05;1.00;;;;;;;3.81;77.67;101371.88;5114268;28;20556;-67
2024/01/31 11:13:05;;;;;;;2.53;2.03;;;;;;;3.88;77.85;101379.00;5113775;28;20059;-65
2024/01/31 11:15:36;;;;;;;3.10;2.87;;;;;;;3.83;77.21;101367.78;5113929;28;20043;-68
2024/01/31 11:18:09;;;;;;;4.90;3.80;;;;;;;3.93;76.85;101385.16;5113585;28;20138;-69
2024/01/31 11:20:46;;;;;;;1.85;1.75;;;;;;;4.00;77.06;101383.81;5113773;28;20130;-66
2024/01/31 11:23:16;;;;;;;1.17;1.10;;;;;;;4.02;76.68;101385.63;5113584;28;20489;-66
2024/01/31 11:25:47;;;;;;;2.38;2.03;;;;;;;4.02;76.72;101388.16;5113885;28;20027;-67
2024/01/31 11:28:18;;;;;;;4.35;3.08;;;;;;;4.06;76.90;101395.09;5113489;28;20100;-66
2024/01/31 11:30:51;;;;;;;0.60;0.60;;;;;;;4.13;76.23;101386.19;5112312;28;20229;-67
2024/01/31 11:33:22;;;;;;;0.88;0.88;;;;;;;4.17;75.96;101375.47;5113513;28;20047;-66
2024/01/31 11:35:52;;;;;;;1.63;1.52;;;;;;;4.08;76.05;101383.41;5113360;28;20055;-67
2024/01/31 11:38:21;;;;;;;8.85;2.53;;;;;;;4.11;75.52;101376.78;5092947;28;20052;-66
2024/01/31 11:40:52;;;;;;;4.07;2.45;;;;;;;4.16;75.91;101380.41;5092984;28;20061;-68